createdAt,value
2019-03-21T00:02:06.414Z,80.86
2019-03-21T00:04:37.215Z,81.02
2019-03-21T00:07:08.039Z,81.21
2019-03-21T00:09:39.806Z,81.25
2019-03-21T00:12:11.365Z,81.36
2019-03-21T00:14:51.950Z,81.53
2019-03-21T00:17:28.731Z,81.35
2019-03-21T00:20:00.775Z,81.54
2019-03-21T00:22:31.631Z,81.71
2019-03-21T00:25:02.543Z,81.68
2019-03-21T00:27:33.301Z,81.71
2019-03-21T00:30:04.619Z,81.73
2019-03-21T00:32:35.531Z,81.63
2019-03-21T00:35:09.337Z,81.80
2019-03-21T00:37:40.257Z,82.07
2019-03-21T00:40:13.886Z,82.11
2019-03-21T00:42:44.701Z,82.32
2019-03-21T00:45:18.892Z,82.48
2019-03-21T00:47:49.746Z,82.61
2019-03-21T00:50:22.838Z,82.90
2019-03-21T00:52:54.558Z,83.17
2019-03-21T00:55:26.236Z,83.49
2019-03-21T00:57:58.612Z,83.50
2019-03-21T01:00:32.686Z,83.41
2019-03-21T01:03:03.891Z,83.42
2019-03-21T01:05:34.783Z,83.23
2019-03-21T01:08:05.831Z,83.12
2019-03-21T01:10:36.999Z,83.18
2019-03-21T01:13:08.008Z,83.15
2019-03-21T01:15:38.841Z,83.19
2019-03-21T01:18:09.635Z,83.41
2019-03-21T01:20:40.761Z,83.74
2019-03-21T01:23:11.483Z,83.91
2019-03-21T01:25:48.025Z,83.93
2019-03-21T01:28:19.705Z,84.02
2019-03-21T01:30:50.421Z,84.14
2019-03-21T01:33:21.482Z,83.83
2019-03-21T01:35:55.026Z,83.89
2019-03-21T01:38:25.820Z,84.12
2019-03-21T01:40:58.102Z,84.35
2019-03-21T01:43:30.167Z,84.41
2019-03-21T01:46:01.284Z,84.55
2019-03-21T01:48:35.217Z,84.45
2019-03-21T01:51:06.191Z,84.46
2019-03-21T01:53:39.793Z,84.35
2019-03-21T01:56:12.610Z,84.38
2019-03-21T01:58:44.034Z,84.44
2019-03-21T02:01:15.145Z,84.68
2019-03-21T02:03:46.213Z,84.88
2019-03-21T02:06:17.069Z,85.12
2019-03-21T02:08:48.127Z,85.25
2019-03-21T02:11:19.329Z,85.22
2019-03-21T02:13:50.183Z,85.27
2019-03-21T02:16:22.126Z,85.27
2019-03-21T02:18:54.192Z,85.35
2019-03-21T02:21:25.048Z,85.11
2019-03-21T02:23:56.091Z,85.09
2019-03-21T02:26:27.132Z,85.05
2019-03-21T02:28:58.948Z,85.24
2019-03-21T02:31:29.718Z,85.37
2019-03-21T02:34:00.716Z,85.38
2019-03-21T02:36:31.544Z,85.34
2019-03-21T02:39:04.092Z,85.56
2019-03-21T02:41:36.360Z,85.75
2019-03-21T02:44:07.076Z,85.82
2019-03-21T02:46:37.714Z,85.85
2019-03-21T02:49:13.797Z,86.08
2019-03-21T02:51:45.763Z,86.01
2019-03-21T02:54:19.546Z,85.71
2019-03-21T02:56:53.896Z,85.68
2019-03-21T02:59:24.992Z,85.72
2019-03-21T03:01:55.932Z,85.85
2019-03-21T03:04:26.979Z,85.87
2019-03-21T03:07:01.348Z,85.99
2019-03-21T03:09:32.503Z,85.98
2019-03-21T03:12:03.653Z,86.07
2019-03-21T03:14:34.911Z,86.02
2019-03-21T03:17:06.145Z,86.04
2019-03-21T03:19:37.858Z,86.11
2019-03-21T03:22:08.967Z,86.11
2019-03-21T03:24:40.266Z,86.31
2019-03-21T03:27:11.098Z,86.52
2019-03-21T03:29:42.092Z,86.70
2019-03-21T03:32:12.973Z,86.86
2019-03-21T03:34:46.262Z,86.89
2019-03-21T03:37:17.222Z,86.67
2019-03-21T03:39:48.142Z,87.06
2019-03-21T03:42:19.145Z,87.01
2019-03-21T03:44:53.151Z,87.00
2019-03-21T03:47:24.082Z,87.09
2019-03-21T03:49:56.225Z,87.00
2019-03-21T03:52:27.061Z,87.18
2019-03-21T03:54:58.916Z,87.16
2019-03-21T03:57:32.991Z,87.18
2019-03-21T04:00:08.184Z,87.17
2019-03-21T04:02:39.114Z,87.15
2019-03-21T04:05:11.366Z,87.19
2019-03-21T04:07:44.345Z,87.27
2019-03-21T04:10:21.148Z,87.37
2019-03-21T04:12:52.384Z,87.46
2019-03-21T04:15:23.421Z,87.52
2019-03-21T04:17:57.019Z,87.51
2019-03-21T04:20:29.898Z,87.50
2019-03-21T04:23:02.276Z,87.62
2019-03-21T04:25:37.402Z,87.87
2019-03-21T04:28:08.404Z,87.94
2019-03-21T04:30:39.487Z,87.96
2019-03-21T04:33:10.539Z,88.05
2019-03-21T04:35:41.563Z,88.19
2019-03-21T04:38:12.705Z,88.31
2019-03-21T04:40:43.823Z,88.21
2019-03-21T04:43:16.050Z,87.87
2019-03-21T04:45:46.825Z,87.83
2019-03-21T04:48:17.597Z,88.05
2019-03-21T04:50:48.651Z,87.96
2019-03-21T04:53:19.673Z,88.02
2019-03-21T04:55:50.731Z,88.06
2019-03-21T04:58:21.671Z,88.24
2019-03-21T05:00:52.752Z,88.33
2019-03-21T05:03:24.806Z,88.30
2019-03-21T05:05:55.669Z,89.39
2019-03-21T05:08:26.838Z,89.20
2019-03-21T05:10:57.735Z,89.29
2019-03-21T05:13:30.219Z,89.08
2019-03-21T05:16:01.202Z,89.01
2019-03-21T05:18:35.435Z,89.08
2019-03-21T05:21:07.544Z,89.52
2019-03-21T05:23:38.531Z,89.28
2019-03-21T05:26:12.690Z,88.89
2019-03-21T05:28:43.743Z,88.57
2019-03-21T05:31:23.000Z,88.73
2019-03-21T05:33:53.714Z,88.94
2019-03-21T05:36:24.741Z,88.87
2019-03-21T05:38:58.561Z,88.64
2019-03-21T05:41:29.775Z,88.28
2019-03-21T05:44:04.956Z,88.16
2019-03-21T05:46:36.102Z,88.29
2019-03-21T05:49:06.984Z,88.10
2019-03-21T05:51:38.185Z,88.00
2019-03-21T05:54:11.145Z,88.57
2019-03-21T05:56:42.045Z,88.92
2019-03-21T05:59:14.772Z,88.82
2019-03-21T06:01:45.786Z,88.83
2019-03-21T06:04:16.884Z,88.68
2019-03-21T06:06:52.337Z,88.26
2019-03-21T06:09:23.251Z,87.74
2019-03-21T06:11:56.928Z,87.05
2019-03-21T06:14:28.504Z,86.57
2019-03-21T06:16:59.591Z,85.92
2019-03-21T06:19:51.878Z,84.94
2019-03-21T06:22:46.466Z,83.77
2019-03-21T06:25:44.784Z,83.16
2019-03-21T06:28:15.823Z,82.90
2019-03-21T06:30:49.792Z,82.16
2019-03-21T06:33:20.647Z,81.15
2019-03-21T06:35:53.005Z,78.94
2019-03-21T06:38:23.784Z,76.78
2019-03-21T06:40:54.698Z,76.62
2019-03-21T06:43:25.593Z,76.19
2019-03-21T06:45:59.112Z,75.80
2019-03-21T06:48:29.976Z,75.65
2019-03-21T06:51:01.305Z,74.49
2019-03-21T06:53:32.304Z,73.42
2019-03-21T06:56:04.408Z,72.30
2019-03-21T06:58:35.188Z,71.00
2019-03-21T07:01:06.218Z,68.67
2019-03-21T07:03:37.078Z,68.15
2019-03-21T07:06:08.093Z,67.31
2019-03-21T07:08:39.368Z,67.56
2019-03-21T07:11:10.363Z,66.67
2019-03-21T07:13:41.191Z,65.36
2019-03-21T07:16:12.064Z,65.03
2019-03-21T07:18:43.324Z,64.70
2019-03-21T07:21:16.920Z,62.43
2019-03-21T07:23:49.978Z,63.69
2019-03-21T07:26:25.095Z,62.29
2019-03-21T07:28:56.417Z,61.28
2019-03-21T07:31:27.463Z,59.64
2019-03-21T07:33:58.261Z,57.99
2019-03-21T07:36:30.844Z,54.69
2019-03-21T07:39:01.664Z,52.54
2019-03-21T07:41:33.397Z,50.79
2019-03-21T07:44:04.446Z,47.83
2019-03-21T07:46:35.458Z,46.16
2019-03-21T07:49:06.445Z,45.21
2019-03-21T07:51:38.202Z,42.96
2019-03-21T07:54:09.119Z,41.48
2019-03-21T07:56:40.199Z,40.40
2019-03-21T07:59:14.583Z,40.26
2019-03-21T08:01:45.756Z,37.41
2019-03-21T08:04:16.648Z,34.62
2019-03-21T08:06:47.934Z,34.17
2019-03-21T08:09:19.233Z,31.99
2019-03-21T08:11:50.414Z,31.99
2019-03-21T08:14:22.679Z,30.87
2019-03-21T08:16:53.570Z,29.86
2019-03-21T08:19:24.545Z,28.43
2019-03-21T08:21:55.494Z,28.02
2019-03-21T08:24:26.484Z,24.85
2019-03-21T08:26:57.762Z,24.58
2019-03-21T08:29:28.628Z,25.09
2019-03-21T08:31:59.636Z,24.99
2019-03-21T08:34:30.889Z,25.25
2019-03-21T08:37:01.755Z,24.98
2019-03-21T08:39:32.637Z,24.48
2019-03-21T08:42:03.679Z,23.85
2019-03-21T08:44:34.477Z,22.85
2019-03-21T08:47:09.107Z,22.87
2019-03-21T08:49:41.629Z,22.87
2019-03-21T08:52:12.913Z,22.46
2019-03-21T08:54:48.265Z,20.76
2019-03-21T08:57:19.167Z,21.25
2019-03-21T08:59:50.550Z,21.35
2019-03-21T09:02:22.874Z,21.76
2019-03-21T09:04:54.148Z,21.56
2019-03-21T09:07:28.134Z,21.44
2019-03-21T09:10:00.413Z,21.61
2019-03-21T09:12:32.349Z,19.67
2019-03-21T09:15:08.019Z,19.67
2019-03-21T09:17:38.470Z,19.20
2019-03-21T09:20:15.474Z,18.97
2019-03-21T09:22:46.286Z,19.97
2019-03-21T09:25:18.956Z,19.27
2019-03-21T09:28:02.183Z,19.60
2019-03-21T09:30:28.727Z,17.70
2019-03-21T09:32:59.568Z,17.32
2019-03-21T09:35:30.418Z,16.59
2019-03-21T09:38:01.304Z,16.24
2019-03-21T09:40:35.308Z,16.04
2019-03-21T09:43:06.456Z,16.55
2019-03-21T09:45:37.310Z,16.04
2019-03-21T09:48:09.973Z,16.21
2019-03-21T09:50:41.253Z,17.00
2019-03-21T09:53:12.344Z,17.01
2019-03-21T09:55:46.374Z,16.50
2019-03-21T09:58:17.089Z,16.80
2019-03-21T10:00:47.776Z,16.38
2019-03-21T10:03:19.112Z,15.92
2019-03-21T10:05:50.371Z,16.50
2019-03-21T10:08:24.011Z,17.40
2019-03-21T10:10:57.314Z,16.80
2019-03-21T10:13:29.666Z,16.61
2019-03-21T10:16:00.639Z,16.26
2019-03-21T10:18:31.660Z,16.55
2019-03-21T10:21:02.534Z,16.53
2019-03-21T10:23:35.118Z,16.53
2019-03-21T10:26:06.299Z,16.84
2019-03-21T10:28:40.714Z,16.54
2019-03-21T10:31:11.531Z,15.91
2019-03-21T10:33:42.641Z,15.59
2019-03-21T10:36:16.146Z,15.37
2019-03-21T10:38:49.021Z,15.07
2019-03-21T10:41:21.020Z,15.49
2019-03-21T10:43:52.118Z,16.12
2019-03-21T10:46:26.433Z,16.11
2019-03-21T10:48:57.184Z,16.01
2019-03-21T10:51:28.134Z,15.41
2019-03-21T10:54:02.085Z,16.07
2019-03-21T10:56:32.918Z,15.81
2019-03-21T10:59:04.073Z,16.73
2019-03-21T11:01:35.495Z,16.23
2019-03-21T11:04:08.853Z,16.23
2019-03-21T11:06:39.938Z,15.60
2019-03-21T11:09:11.209Z,15.75
2019-03-21T11:11:42.119Z,15.18
2019-03-21T11:14:13.226Z,15.85
2019-03-21T11:16:45.691Z,14.89
2019-03-21T11:19:19.090Z,15.96
2019-03-21T11:21:50.047Z,15.36
2019-03-21T11:24:21.207Z,14.71
2019-03-21T11:26:52.127Z,14.75
2019-03-21T11:29:23.111Z,14.20
2019-03-21T11:31:53.825Z,15.49
2019-03-21T11:34:29.224Z,15.31
2019-03-21T11:37:00.659Z,14.47
2019-03-21T11:39:32.847Z,15.07
2019-03-21T11:42:04.892Z,15.34
2019-03-21T11:44:36.048Z,15.89
2019-03-21T11:47:06.769Z,14.36
2019-03-21T11:49:37.541Z,15.16
2019-03-21T11:52:17.785Z,14.12
2019-03-21T11:54:41.037Z,14.69
2019-03-21T11:57:11.863Z,13.21
2019-03-21T11:59:51.542Z,13.63
2019-03-21T12:02:26.555Z,13.54
2019-03-21T12:04:51.181Z,12.97
2019-03-21T12:07:22.141Z,13.31
2019-03-21T12:09:53.195Z,13.26
2019-03-21T12:12:24.241Z,12.97
2019-03-21T12:14:56.071Z,12.37
2019-03-21T12:17:28.040Z,12.71
2019-03-21T12:19:59.220Z,12.44
2019-03-21T12:22:30.638Z,12.54
2019-03-21T12:25:02.752Z,12.69
2019-03-21T12:27:33.991Z,12.29
2019-03-21T12:30:06.871Z,11.92
2019-03-21T12:32:38.500Z,12.03
2019-03-21T12:35:09.356Z,13.35
2019-03-21T12:37:40.172Z,12.47
2019-03-21T12:40:11.121Z,13.72
2019-03-21T12:42:42.675Z,13.83
2019-03-21T12:45:13.553Z,13.93
2019-03-21T12:47:44.409Z,13.39
2019-03-21T12:50:15.399Z,13.55
2019-03-21T12:52:46.399Z,13.71
2019-03-21T12:55:19.964Z,14.64
2019-03-21T12:57:50.805Z,13.98
2019-03-21T13:00:33.246Z,14.62
2019-03-21T13:03:04.370Z,14.86
2019-03-21T13:05:35.337Z,14.76
2019-03-21T13:08:06.611Z,14.83
2019-03-21T13:10:37.475Z,13.49
2019-03-21T13:13:08.767Z,13.96
2019-03-21T13:15:39.864Z,14.09
2019-03-21T13:18:13.365Z,14.04
2019-03-21T13:20:47.116Z,14.33
2019-03-21T13:23:19.750Z,13.40
2019-03-21T13:25:50.622Z,13.27
2019-03-21T13:28:21.602Z,13.39
2019-03-21T13:30:52.568Z,14.46
2019-03-21T13:33:23.792Z,14.52
2019-03-21T13:35:57.080Z,14.18
2019-03-21T13:38:28.229Z,13.99
2019-03-21T13:40:59.285Z,13.19
2019-03-21T13:43:30.422Z,14.37
2019-03-21T13:46:01.332Z,13.68
2019-03-21T13:48:32.406Z,14.09
2019-03-21T13:51:03.414Z,13.59
2019-03-21T13:53:34.165Z,14.64
2019-03-21T13:56:07.606Z,14.89
2019-03-21T13:58:39.679Z,15.56
2019-03-21T14:01:10.590Z,16.12
2019-03-21T14:03:41.335Z,17.44
2019-03-21T14:06:12.129Z,17.97
2019-03-21T14:08:42.968Z,16.51
2019-03-21T14:11:15.473Z,16.54
2019-03-21T14:13:47.539Z,17.35
2019-03-21T14:16:18.458Z,17.74
2019-03-21T14:18:49.313Z,18.86
2019-03-21T14:21:20.160Z,18.86
2019-03-21T14:23:50.939Z,18.16
2019-03-21T14:26:21.679Z,18.39
2019-03-21T14:28:52.526Z,18.36
2019-03-21T14:31:26.638Z,19.01
2019-03-21T14:33:59.931Z,18.82
2019-03-21T14:36:30.975Z,19.35
2019-03-21T14:39:01.774Z,20.31
2019-03-21T14:41:34.480Z,20.65
2019-03-21T14:44:08.551Z,20.65
2019-03-21T14:46:43.033Z,20.49
2019-03-21T14:49:13.992Z,21.41
2019-03-21T14:51:44.873Z,22.69
2019-03-21T14:54:15.585Z,23.47
2019-03-21T14:56:47.160Z,22.52
2019-03-21T14:59:18.271Z,23.36
2019-03-21T15:01:51.752Z,22.74
2019-03-21T15:04:24.551Z,23.15
2019-03-21T15:06:58.615Z,23.63
2019-03-21T15:09:29.419Z,24.58
2019-03-21T15:12:05.446Z,23.57
2019-03-21T15:14:36.395Z,25.29
2019-03-21T15:17:07.258Z,26.18
2019-03-21T15:19:40.875Z,24.73
2019-03-21T15:22:11.850Z,25.42
2019-03-21T15:24:42.975Z,25.43
2019-03-21T15:27:13.976Z,25.42
2019-03-21T15:29:45.152Z,26.45
2019-03-21T15:32:18.573Z,25.59
2019-03-21T15:34:53.924Z,25.78
2019-03-21T15:37:27.796Z,25.27
2019-03-21T15:39:58.749Z,24.78
2019-03-21T15:42:29.710Z,25.74
2019-03-21T15:45:15.483Z,25.63
2019-03-21T15:47:33.394Z,25.24
2019-03-21T15:50:04.397Z,26.20
2019-03-21T15:52:35.676Z,25.78
2019-03-21T15:55:08.534Z,25.43
2019-03-21T15:57:42.629Z,25.19
2019-03-21T16:00:17.826Z,25.28
2019-03-21T16:02:48.848Z,25.27
2019-03-21T16:05:19.840Z,25.41
2019-03-21T16:07:50.763Z,26.47
2019-03-21T16:10:23.406Z,27.13
2019-03-21T16:12:54.634Z,26.17
2019-03-21T16:15:25.863Z,25.91
2019-03-21T16:17:59.149Z,26.66
2019-03-21T16:20:29.931Z,26.36
2019-03-21T16:23:01.225Z,26.29
2019-03-21T16:25:32.323Z,26.11
2019-03-21T16:28:03.191Z,26.14
2019-03-21T16:30:34.669Z,26.95
2019-03-21T16:33:05.766Z,26.92
2019-03-21T16:35:39.467Z,27.21
2019-03-21T16:38:10.400Z,28.29
2019-03-21T16:40:41.274Z,27.65
2019-03-21T16:43:13.692Z,27.44
2019-03-21T16:45:44.753Z,27.15
2019-03-21T16:48:15.839Z,27.52
2019-03-21T16:50:47.021Z,27.61
2019-03-21T16:53:18.304Z,28.01
2019-03-21T16:55:49.502Z,28.82
2019-03-21T16:58:21.545Z,28.33
2019-03-21T17:00:52.414Z,28.27
2019-03-21T17:03:23.253Z,28.48
2019-03-21T17:05:58.775Z,29.89
2019-03-21T17:08:29.733Z,30.41
2019-03-21T17:11:03.539Z,31.16
2019-03-21T17:13:34.472Z,31.76
2019-03-21T17:16:06.167Z,31.95
2019-03-21T17:18:37.189Z,32.74
2019-03-21T17:21:09.520Z,33.16
2019-03-21T17:23:41.043Z,33.86
2019-03-21T17:26:12.114Z,34.75
2019-03-21T17:28:44.960Z,35.99
2019-03-21T17:31:19.531Z,35.71
2019-03-21T17:33:50.553Z,37.14
2019-03-21T17:36:21.354Z,37.62
2019-03-21T17:38:54.362Z,38.03
2019-03-21T17:41:25.192Z,37.79
2019-03-21T17:43:57.284Z,37.31
2019-03-21T17:46:33.686Z,37.16
2019-03-21T17:49:06.438Z,36.79
2019-03-21T17:51:37.605Z,37.98
2019-03-21T17:54:11.570Z,39.00
2019-03-21T17:56:42.885Z,39.28
2019-03-21T17:59:13.620Z,39.95
2019-03-21T18:01:44.605Z,40.26
2019-03-21T18:04:15.461Z,41.35
2019-03-21T18:06:46.692Z,42.47
2019-03-21T18:09:19.305Z,42.94
2019-03-21T18:11:49.986Z,43.16
2019-03-21T18:14:22.013Z,43.15
2019-03-21T18:16:53.477Z,43.06
2019-03-21T18:19:24.342Z,44.06
2019-03-21T18:22:00.947Z,45.52
2019-03-21T18:24:34.063Z,45.54
2019-03-21T18:27:04.870Z,46.01
2019-03-21T18:29:35.951Z,46.43
2019-03-21T18:32:06.862Z,46.91
2019-03-21T18:34:40.068Z,46.67
2019-03-21T18:37:12.455Z,46.49
2019-03-21T18:39:43.349Z,47.46
2019-03-21T18:42:14.123Z,48.76
2019-03-21T18:44:47.058Z,48.69
2019-03-21T18:47:18.218Z,49.59
2019-03-21T18:49:49.104Z,50.10
2019-03-21T18:52:20.345Z,50.46
2019-03-21T18:54:51.181Z,50.13
2019-03-21T18:57:22.129Z,50.18
2019-03-21T18:59:54.387Z,50.92
2019-03-21T19:02:25.344Z,50.84
2019-03-21T19:04:56.234Z,51.23
2019-03-21T19:07:29.660Z,52.30
2019-03-21T19:10:00.604Z,52.33
2019-03-21T19:12:34.342Z,52.55
2019-03-21T19:15:09.894Z,52.86
2019-03-21T19:17:40.840Z,53.38
2019-03-21T19:20:12.168Z,53.78
2019-03-21T19:22:46.358Z,54.09
2019-03-21T19:25:19.433Z,54.40
2019-03-21T19:27:52.957Z,55.18
2019-03-21T19:30:24.420Z,55.65
2019-03-21T19:32:55.625Z,55.71
2019-03-21T19:35:28.963Z,55.81
2019-03-21T19:38:00.003Z,56.61
2019-03-21T19:40:31.293Z,57.89
2019-03-21T19:43:02.631Z,59.65
2019-03-21T19:45:33.770Z,58.58
2019-03-21T19:48:04.947Z,58.85
2019-03-21T19:50:35.858Z,59.33
2019-03-21T19:53:07.078Z,59.88
2019-03-21T19:55:38.175Z,60.76
2019-03-21T19:58:09.160Z,61.17
2019-03-21T20:00:41.068Z,61.28
2019-03-21T20:03:14.009Z,61.81
2019-03-21T20:05:45.287Z,61.89
2019-03-21T20:08:16.143Z,62.52
2019-03-21T20:10:49.974Z,62.92
2019-03-21T20:13:21.244Z,63.67
2019-03-21T20:15:52.693Z,63.63
2019-03-21T20:18:26.074Z,63.56
2019-03-21T20:20:58.849Z,63.70
2019-03-21T20:23:30.153Z,63.94
2019-03-21T20:26:01.187Z,63.94
2019-03-21T20:28:32.535Z,64.54
2019-03-21T20:31:03.501Z,65.00
2019-03-21T20:33:35.476Z,65.51
2019-03-21T20:36:06.808Z,65.77
2019-03-21T20:38:38.005Z,67.28
2019-03-21T20:41:09.206Z,67.03
2019-03-21T20:43:41.354Z,66.35
2019-03-21T20:46:12.248Z,66.34
2019-03-21T20:48:40.805Z,66.40
2019-03-21T20:51:14.352Z,66.18
2019-03-21T20:53:46.695Z,66.25
2019-03-21T20:56:17.536Z,66.78
2019-03-21T20:58:50.500Z,67.03
2019-03-21T21:01:21.438Z,67.87
2019-03-21T21:03:53.309Z,68.03
2019-03-21T21:06:24.334Z,67.83
2019-03-21T21:08:55.805Z,67.75
2019-03-21T21:11:27.140Z,67.94
2019-03-21T21:13:58.117Z,68.04
2019-03-21T21:16:31.911Z,68.47
2019-03-21T21:19:02.868Z,68.58
2019-03-21T21:21:34.049Z,68.93
2019-03-21T21:24:05.315Z,69.11
2019-03-21T21:26:36.817Z,69.21
2019-03-21T21:29:08.293Z,69.32
2019-03-21T21:31:39.447Z,69.51
2019-03-21T21:34:10.769Z,70.24
2019-03-21T21:36:42.336Z,70.75
2019-03-21T21:39:16.877Z,70.55
2019-03-21T21:41:50.406Z,70.69
2019-03-21T21:44:21.546Z,70.47
2019-03-21T21:46:52.650Z,70.65
2019-03-21T21:49:25.491Z,70.78
2019-03-21T21:51:56.556Z,71.01
2019-03-21T21:54:28.956Z,71.54
2019-03-21T21:57:00.141Z,71.86
2019-03-21T21:59:31.182Z,71.70
2019-03-21T22:02:05.339Z,71.79
2019-03-21T22:04:41.391Z,72.22
2019-03-21T22:07:11.364Z,72.52
2019-03-21T22:09:43.662Z,72.42
2019-03-21T22:12:16.767Z,72.05
2019-03-21T22:14:47.926Z,72.30
2019-03-21T22:17:20.091Z,72.34
2019-03-21T22:19:52.473Z,72.61
2019-03-21T22:22:23.599Z,72.24
2019-03-21T22:24:54.431Z,72.60
2019-03-21T22:27:27.735Z,72.53
2019-03-21T22:29:58.836Z,72.88
2019-03-21T22:32:29.929Z,73.40
2019-03-21T22:35:00.758Z,73.57
2019-03-21T22:37:32.511Z,73.61
2019-03-21T22:40:03.470Z,73.69
2019-03-21T22:42:34.575Z,74.18
2019-03-21T22:45:06.124Z,74.14
2019-03-21T22:47:37.104Z,74.22
2019-03-21T22:50:11.225Z,74.42
2019-03-21T22:52:42.456Z,74.38
2019-03-21T22:55:13.424Z,74.46
2019-03-21T22:57:44.583Z,74.43
2019-03-21T23:00:20.324Z,74.79
2019-03-21T23:02:55.315Z,75.30
2019-03-21T23:05:28.200Z,75.45
2019-03-21T23:07:59.060Z,75.48
2019-03-21T23:10:29.829Z,75.73
2019-03-21T23:13:00.915Z,76.27
2019-03-21T23:15:31.962Z,76.16
2019-03-21T23:18:04.984Z,75.78
2019-03-21T23:20:36.273Z,75.63
2019-03-21T23:23:07.210Z,75.67
2019-03-21T23:25:39.658Z,75.78
2019-03-21T23:28:10.487Z,76.60
2019-03-21T23:30:42.671Z,77.06
2019-03-21T23:33:13.589Z,76.49
2019-03-21T23:35:44.766Z,76.36
2019-03-21T23:38:15.981Z,76.41
2019-03-21T23:40:47.090Z,76.79
2019-03-21T23:43:18.624Z,77.02
2019-03-21T23:45:49.475Z,77.12
2019-03-21T23:48:20.623Z,77.29
2019-03-21T23:50:51.485Z,77.73
2019-03-21T23:53:22.386Z,77.83
2019-03-21T23:55:53.247Z,77.77
2019-03-21T23:58:24.377Z,77.70
